createdAt,value
2023-04-17T00:00:28.243Z,11.32
2023-04-17T00:03:01.843Z,12.93
2023-04-17T00:05:34.088Z,13.65
2023-04-17T00:08:09.034Z,11.73
2023-04-17T00:10:41.077Z,11.43
2023-04-17T00:13:13.108Z,13.82
2023-04-17T00:15:45.362Z,10.70
2023-04-17T00:18:17.389Z,12.30
2023-04-17T00:20:49.620Z,15.82
2023-04-17T00:23:25.787Z,15.10
2023-04-17T00:25:58.023Z,17.60
2023-04-17T00:28:30.155Z,14.52
2023-04-17T00:31:02.294Z,13.10
2023-04-17T00:33:34.824Z,14.98
2023-04-17T00:36:08.520Z,15.32
2023-04-17T00:38:43.167Z,13.50
2023-04-17T00:41:15.512Z,12.13
2023-04-17T00:43:47.564Z,12.02
2023-04-17T00:46:19.855Z,11.60
2023-04-17T00:48:52.276Z,11.88
2023-04-17T00:51:24.711Z,12.50
2023-04-17T00:54:00.478Z,13.75
2023-04-17T00:56:32.742Z,13.55
2023-04-17T00:59:10.967Z,13.30
2023-04-17T01:01:43.288Z,10.98
2023-04-17T01:04:15.473Z,12.77
2023-04-17T01:06:47.614Z,12.55
2023-04-17T01:09:22.276Z,11.98
2023-04-17T01:11:54.295Z,12.25
2023-04-17T01:14:26.362Z,10.75
2023-04-17T01:16:58.454Z,13.02
2023-04-17T01:19:31.393Z,14.90
2023-04-17T01:22:03.422Z,14.57
2023-04-17T01:24:38.166Z,16.20
2023-04-17T01:27:13.794Z,14.48
2023-04-17T01:29:45.944Z,13.57
2023-04-17T01:32:18.681Z,16.85
2023-04-17T01:34:50.748Z,13.95
2023-04-17T01:37:22.777Z,12.23
2023-04-17T01:39:58.590Z,13.52
2023-04-17T01:42:30.662Z,15.25
2023-04-17T01:45:02.914Z,13.18
2023-04-17T01:47:35.198Z,10.80
2023-04-17T01:50:09.351Z,13.10
2023-04-17T01:52:41.439Z,12.30
2023-04-17T01:55:16.158Z,15.90
2023-04-17T01:57:48.999Z,13.35
2023-04-17T02:00:21.602Z,16.02
2023-04-17T02:02:53.707Z,16.42
2023-04-17T02:05:26.028Z,15.05
2023-04-17T02:07:58.244Z,17.55
2023-04-17T02:10:33.338Z,16.23
2023-04-17T02:13:05.616Z,14.73
2023-04-17T02:15:37.849Z,14.00
2023-04-17T02:18:10.137Z,15.20
2023-04-17T02:20:42.203Z,13.80
2023-04-17T02:23:14.267Z,14.45
2023-04-17T02:25:48.868Z,16.13
2023-04-17T02:28:20.920Z,14.48
2023-04-17T02:30:53.035Z,14.30
2023-04-17T02:33:25.230Z,15.65
2023-04-17T02:35:57.347Z,15.15
2023-04-17T02:38:32.250Z,14.00
2023-04-17T02:41:06.956Z,14.98
2023-04-17T02:43:38.977Z,13.13
2023-04-17T02:46:11.492Z,14.75
2023-04-17T02:48:43.596Z,14.70
2023-04-17T02:51:15.681Z,16.98
2023-04-17T02:53:49.304Z,13.98
2023-04-17T02:56:23.994Z,16.27
2023-04-17T02:58:56.200Z,16.00
2023-04-17T03:01:28.498Z,16.27
2023-04-17T03:04:00.751Z,19.50
2023-04-17T03:06:33.701Z,16.73
2023-04-17T03:09:05.748Z,17.15
2023-04-17T03:11:40.425Z,17.52
2023-04-17T03:14:12.448Z,16.88
2023-04-17T03:16:44.553Z,16.40
2023-04-17T03:19:16.631Z,15.98
2023-04-17T03:21:48.676Z,16.80
2023-04-17T03:24:20.726Z,17.70
2023-04-17T03:26:56.292Z,16.75
2023-04-17T03:29:28.632Z,15.98
2023-04-17T03:32:00.923Z,19.75
2023-04-17T03:34:33.076Z,16.90
2023-04-17T03:37:05.094Z,14.55
2023-04-17T03:39:37.191Z,15.20
2023-04-17T03:42:14.790Z,16.23
2023-04-17T03:44:46.907Z,16.05
2023-04-17T03:47:18.950Z,14.63
2023-04-17T03:49:51.031Z,16.50
2023-04-17T03:52:23.089Z,16.23
2023-04-17T03:54:55.152Z,18.42
2023-04-17T03:57:29.783Z,17.20
2023-04-17T04:00:02.193Z,16.10
2023-04-17T04:02:34.437Z,16.73
2023-04-17T04:05:08.005Z,15.88
2023-04-17T04:07:40.111Z,16.75
2023-04-17T04:10:12.225Z,15.15
2023-04-17T04:12:46.852Z,15.68
2023-04-17T04:15:18.923Z,13.48
2023-04-17T04:17:51.044Z,15.95
2023-04-17T04:20:23.064Z,13.48
2023-04-17T04:22:57.541Z,13.98
2023-04-17T04:25:29.555Z,13.55
2023-04-17T04:28:04.573Z,14.25
2023-04-17T04:30:38.828Z,13.45
2023-04-17T04:33:11.483Z,10.35
2023-04-17T04:35:47.747Z,14.80
2023-04-17T04:38:20.193Z,13.38
2023-04-17T04:40:52.533Z,11.35
2023-04-17T04:43:29.146Z,13.95
2023-04-17T04:46:01.414Z,14.02
2023-04-17T04:48:36.319Z,11.95
2023-04-17T04:51:08.436Z,12.52
2023-04-17T04:53:40.555Z,13.70
2023-04-17T04:56:12.740Z,12.38
2023-04-17T04:58:47.360Z,11.82
2023-04-17T05:01:19.486Z,13.32
2023-04-17T05:03:51.631Z,12.60
2023-04-17T05:06:23.809Z,12.63
2023-04-17T05:08:55.947Z,12.63
2023-04-17T05:11:28.114Z,14.10
2023-04-17T05:14:02.734Z,13.55
2023-04-17T05:16:34.786Z,11.63
2023-04-17T05:19:08.932Z,12.05
2023-04-17T05:21:41.256Z,12.43
2023-04-17T05:24:13.428Z,11.10
2023-04-17T05:26:45.670Z,11.77
2023-04-17T05:29:20.480Z,13.23
2023-04-17T05:31:52.708Z,12.13
2023-04-17T05:34:24.952Z,11.77
2023-04-17T05:36:57.221Z,12.25
2023-04-17T05:39:29.405Z,13.85
2023-04-17T05:42:01.764Z,12.15
2023-04-17T05:44:36.472Z,14.63
2023-04-17T05:47:08.500Z,11.65
2023-04-17T05:49:40.584Z,14.40
2023-04-17T05:52:12.660Z,13.73
2023-04-17T05:54:44.778Z,12.48
2023-04-17T05:57:16.825Z,14.60
2023-04-17T05:59:51.437Z,15.77
2023-04-17T06:02:23.906Z,13.32
2023-04-17T06:04:58.598Z,15.90
2023-04-17T06:07:30.933Z,17.85
2023-04-17T06:10:03.128Z,14.40
2023-04-17T06:12:35.467Z,14.10
2023-04-17T06:15:11.448Z,14.52
2023-04-17T06:17:43.616Z,15.43
2023-04-17T06:20:15.896Z,15.93
2023-04-17T06:22:48.003Z,15.32
2023-04-17T06:25:20.092Z,13.23
2023-04-17T06:27:52.304Z,13.32
2023-04-17T06:30:27.045Z,12.80
2023-04-17T06:32:59.281Z,13.68
2023-04-17T06:35:31.392Z,13.27
2023-04-17T06:38:03.455Z,12.55
2023-04-17T06:40:35.759Z,13.75
2023-04-17T06:43:07.825Z,11.98
2023-04-17T06:45:43.164Z,12.23
2023-04-17T06:48:15.245Z,11.88
2023-04-17T06:50:47.306Z,13.43
2023-04-17T06:53:19.406Z,14.95
2023-04-17T06:55:51.435Z,15.13
2023-04-17T06:58:23.451Z,13.48
2023-04-17T07:00:58.120Z,12.90
2023-04-17T07:03:30.269Z,13.32
2023-04-17T07:06:02.411Z,13.98
2023-04-17T07:08:34.657Z,12.68
2023-04-17T07:11:06.878Z,13.55
2023-04-17T07:13:39.156Z,11.93
2023-04-17T07:16:13.798Z,12.07
2023-04-17T07:18:45.837Z,12.07
2023-04-17T07:21:18.000Z,10.80
2023-04-17T07:23:50.097Z,11.98
2023-04-17T07:26:22.803Z,10.30
2023-04-17T07:28:54.880Z,11.20
2023-04-17T07:31:29.589Z,10.35
2023-04-17T07:34:01.758Z,10.88
2023-04-17T07:36:34.066Z,9.60
2023-04-17T07:39:07.383Z,12.23
2023-04-17T07:41:39.408Z,9.68
2023-04-17T07:44:11.659Z,10.20
2023-04-17T07:46:46.521Z,9.73
2023-04-17T07:49:18.818Z,10.23
2023-04-17T07:51:51.363Z,11.73
2023-04-17T07:54:23.451Z,9.35
2023-04-17T07:56:58.420Z,9.43
2023-04-17T07:59:30.856Z,8.70
2023-04-17T08:02:06.036Z,8.73
2023-04-17T08:04:40.470Z,10.60
2023-04-17T08:07:13.280Z,9.90
2023-04-17T08:09:45.692Z,7.95
2023-04-17T08:12:17.701Z,9.05
2023-04-17T08:14:49.719Z,7.85
2023-04-17T08:17:26.298Z,8.85
2023-04-17T08:19:58.478Z,8.10
2023-04-17T08:22:30.641Z,8.90
2023-04-17T08:25:03.267Z,7.25
2023-04-17T08:27:35.651Z,8.57
2023-04-17T08:30:11.878Z,6.63
2023-04-17T08:32:49.070Z,8.45
2023-04-17T08:35:21.264Z,8.02
2023-04-17T08:37:55.590Z,7.43
2023-04-17T08:40:27.838Z,7.25
2023-04-17T08:43:01.914Z,9.85
2023-04-17T08:45:35.590Z,8.63
2023-04-17T08:48:11.468Z,7.20
2023-04-17T08:50:48.586Z,8.88
2023-04-17T08:53:21.227Z,7.15
2023-04-17T08:55:53.323Z,6.65
2023-04-17T08:58:28.691Z,7.88
2023-04-17T09:01:09.734Z,7.00
2023-04-17T09:03:47.183Z,7.65
2023-04-17T09:06:19.458Z,5.70
2023-04-17T09:08:57.367Z,6.65
2023-04-17T09:11:29.524Z,8.38
2023-04-17T09:14:01.585Z,7.50
2023-04-17T09:16:34.374Z,8.52
2023-04-17T09:19:09.283Z,5.00
2023-04-17T09:21:41.679Z,5.78
2023-04-17T09:24:13.788Z,6.07
2023-04-17T09:26:45.822Z,5.60
2023-04-17T09:29:17.863Z,5.32
2023-04-17T09:31:49.965Z,6.05
2023-04-17T09:34:24.683Z,6.10
2023-04-17T09:36:56.905Z,6.53
2023-04-17T09:39:29.058Z,6.03
2023-04-17T09:42:04.075Z,4.75
2023-04-17T09:44:38.136Z,5.40
2023-04-17T09:47:12.558Z,5.95
2023-04-17T09:49:52.776Z,5.57
2023-04-17T09:52:25.036Z,6.47
2023-04-17T09:54:57.854Z,6.13
2023-04-17T09:57:29.924Z,4.78
2023-04-17T10:00:05.829Z,4.72
2023-04-17T10:02:39.773Z,6.03
2023-04-17T10:05:15.022Z,4.70
2023-04-17T10:07:47.883Z,6.05
2023-04-17T10:10:24.558Z,3.50
2023-04-17T10:12:59.127Z,5.05
2023-04-17T10:15:32.371Z,6.57
2023-04-17T10:18:20.675Z,4.65
2023-04-17T10:20:55.722Z,5.07
2023-04-17T10:23:32.645Z,5.22
2023-04-17T10:26:38.059Z,5.18
2023-04-17T10:29:10.467Z,6.03
2023-04-17T10:32:12.591Z,4.05
2023-04-17T10:34:44.771Z,5.93
2023-04-17T10:37:19.608Z,4.93
2023-04-17T10:39:59.064Z,7.00
2023-04-17T10:42:31.220Z,5.85
2023-04-17T10:45:06.042Z,4.90
2023-04-17T10:47:39.137Z,9.43
2023-04-17T10:50:11.380Z,5.70
2023-04-17T10:52:46.154Z,5.70
2023-04-17T10:55:23.114Z,6.15
2023-04-17T10:58:00.940Z,4.60
2023-04-17T11:00:35.982Z,5.53
2023-04-17T11:03:08.143Z,4.35
2023-04-17T11:05:45.601Z,3.95
2023-04-17T11:08:20.509Z,4.63
2023-04-17T11:10:53.769Z,4.85
2023-04-17T11:13:25.872Z,5.45
2023-04-17T11:15:57.902Z,5.30
2023-04-17T11:18:29.955Z,4.82
2023-04-17T11:21:02.479Z,4.63
2023-04-17T11:23:37.697Z,4.80
2023-04-17T11:26:09.789Z,5.78
2023-04-17T11:28:41.875Z,5.60
2023-04-17T11:31:15.960Z,4.50
2023-04-17T11:33:50.021Z,5.18
2023-04-17T11:36:22.487Z,4.28
2023-04-17T11:38:57.479Z,6.13
2023-04-17T11:41:36.223Z,4.05
2023-04-17T11:44:09.341Z,5.78
2023-04-17T11:46:41.625Z,4.90
2023-04-17T11:49:13.941Z,4.25
2023-04-17T11:51:46.868Z,4.72
2023-04-17T11:54:26.703Z,4.30
2023-04-17T11:57:00.187Z,4.10
2023-04-17T11:59:33.327Z,4.03
2023-04-17T12:02:07.709Z,4.38
2023-04-17T12:04:40.790Z,4.47
2023-04-17T12:07:24.095Z,5.30
2023-04-17T12:10:00.169Z,5.03
2023-04-17T12:12:32.216Z,4.68
2023-04-17T12:15:05.174Z,5.00
2023-04-17T12:17:37.215Z,5.05
2023-04-17T12:20:10.517Z,5.50
2023-04-17T12:22:42.583Z,4.13
2023-04-17T12:25:17.174Z,5.82
2023-04-17T12:27:49.503Z,4.05
2023-04-17T12:30:22.196Z,4.10
2023-04-17T12:32:54.623Z,5.00
2023-04-17T12:35:27.480Z,4.10
2023-04-17T12:37:59.713Z,4.70
2023-04-17T12:40:34.317Z,5.53
2023-04-17T12:43:08.504Z,4.28
2023-04-17T12:45:42.679Z,3.50
2023-04-17T12:48:15.475Z,4.13
2023-04-17T12:50:47.532Z,4.20
2023-04-17T12:53:19.608Z,3.03
2023-04-17T12:55:54.265Z,3.90
2023-04-17T12:58:26.351Z,3.08
2023-04-17T13:00:58.440Z,3.75
2023-04-17T13:03:30.655Z,2.70
2023-04-17T13:06:02.948Z,3.15
2023-04-17T13:08:34.998Z,3.33
2023-04-17T13:11:10.010Z,2.92
2023-04-17T13:13:42.046Z,3.50
2023-04-17T13:16:14.171Z,2.95
2023-04-17T13:18:46.269Z,3.60
2023-04-17T13:21:18.278Z,3.70
2023-04-17T13:23:50.336Z,3.63
2023-04-17T13:26:25.050Z,3.05
2023-04-17T13:28:57.077Z,3.72
2023-04-17T13:31:29.219Z,4.00
2023-04-17T13:34:01.977Z,3.08
2023-04-17T13:36:34.321Z,3.05
2023-04-17T13:39:06.456Z,5.50
2023-04-17T13:41:41.141Z,2.80
2023-04-17T13:44:13.869Z,3.80
2023-04-17T13:46:46.058Z,4.47
2023-04-17T13:49:18.200Z,4.28
2023-04-17T13:51:50.879Z,3.30
2023-04-17T13:54:23.012Z,4.85
2023-04-17T13:56:58.360Z,5.18
2023-04-17T13:59:30.452Z,3.70
2023-04-17T14:02:04.299Z,4.68
2023-04-17T14:04:36.654Z,3.15
2023-04-17T14:07:08.920Z,3.67
2023-04-17T14:09:41.121Z,3.30
2023-04-17T14:12:21.535Z,4.05
2023-04-17T14:14:53.584Z,3.00
2023-04-17T14:17:25.920Z,3.03
2023-04-17T14:19:57.995Z,4.25
2023-04-17T14:22:30.029Z,3.80
2023-04-17T14:25:02.102Z,4.43
2023-04-17T14:27:37.138Z,11.70
2023-04-17T14:30:09.975Z,3.78
2023-04-17T14:32:42.042Z,3.28
2023-04-17T14:35:14.156Z,3.25
2023-04-17T14:37:46.273Z,4.03
2023-04-17T14:40:18.393Z,4.95
2023-04-17T14:42:54.818Z,2.35
2023-04-17T14:45:27.119Z,5.18
2023-04-17T14:47:59.251Z,4.47
2023-04-17T14:50:31.544Z,3.78
2023-04-17T14:53:04.819Z,2.78
2023-04-17T14:55:37.004Z,3.90
2023-04-17T14:58:11.739Z,2.78
2023-04-17T15:00:43.881Z,3.03
2023-04-17T15:03:16.151Z,2.83
2023-04-17T15:05:48.533Z,3.08
2023-04-17T15:08:20.682Z,2.67
2023-04-17T15:10:52.710Z,2.13
2023-04-17T15:13:27.351Z,2.60
2023-04-17T15:15:59.383Z,2.03
2023-04-17T15:18:31.443Z,3.13
2023-04-17T15:21:03.625Z,2.40
2023-04-17T15:23:35.735Z,2.20
2023-04-17T15:26:07.828Z,2.83
2023-04-17T15:28:42.526Z,2.42
2023-04-17T15:31:14.640Z,2.65
2023-04-17T15:33:47.668Z,3.05
2023-04-17T15:36:19.708Z,1.58
2023-04-17T15:38:51.732Z,2.00
2023-04-17T15:41:24.192Z,2.10
2023-04-17T15:43:58.814Z,2.17
2023-04-17T15:46:32.064Z,1.90
2023-04-17T15:49:08.353Z,2.13
2023-04-17T15:51:41.671Z,1.42
2023-04-17T15:54:13.857Z,1.42
2023-04-17T15:56:45.988Z,2.10
2023-04-17T15:59:21.343Z,1.65
2023-04-17T16:01:53.674Z,2.25
2023-04-17T16:04:26.049Z,7.28
2023-04-17T16:06:58.241Z,2.22
2023-04-17T16:09:30.859Z,2.53
2023-04-17T16:12:05.614Z,1.98
2023-04-17T16:14:40.325Z,1.80
2023-04-17T16:17:12.345Z,2.55
2023-04-17T16:19:44.361Z,2.13
2023-04-17T16:22:17.765Z,3.10
2023-04-17T16:24:49.897Z,2.63
2023-04-17T16:27:22.016Z,3.95
2023-04-17T16:29:56.711Z,3.15
2023-04-17T16:32:28.841Z,3.35
2023-04-17T16:35:00.978Z,2.28
2023-04-17T16:37:33.042Z,1.90
2023-04-17T16:40:06.781Z,2.25
2023-04-17T16:42:39.108Z,3.55
2023-04-17T16:45:13.797Z,1.67
2023-04-17T16:47:46.104Z,1.45
2023-04-17T16:50:18.405Z,0.90
2023-04-17T16:52:50.549Z,1.20
2023-04-17T16:55:23.009Z,0.85
2023-04-17T16:57:55.776Z,1.23
2023-04-17T17:00:30.675Z,1.10
2023-04-17T17:03:03.027Z,1.52
2023-04-17T17:05:35.263Z,1.70
2023-04-17T17:08:07.275Z,2.67
2023-04-17T17:10:39.281Z,1.00
2023-04-17T17:13:11.488Z,1.63
2023-04-17T17:15:46.196Z,1.63
2023-04-17T17:18:18.227Z,1.30
2023-04-17T17:20:50.810Z,1.60
2023-04-17T17:23:22.874Z,1.98
2023-04-17T17:25:54.902Z,2.22
2023-04-17T17:28:27.011Z,3.10
2023-04-17T17:31:03.277Z,2.28
2023-04-17T17:33:35.962Z,1.55
2023-04-17T17:36:09.107Z,2.97
2023-04-17T17:38:41.205Z,2.08
2023-04-17T17:41:13.337Z,2.50
2023-04-17T17:43:45.476Z,2.58
2023-04-17T17:46:21.100Z,2.40
2023-04-17T17:48:53.327Z,4.25
2023-04-17T17:51:25.895Z,2.42
2023-04-17T17:53:57.947Z,2.35
2023-04-17T17:56:30.094Z,2.88
2023-04-17T17:59:02.161Z,3.90
2023-04-17T18:01:36.880Z,4.80
2023-04-17T18:04:09.066Z,5.68
2023-04-17T18:06:41.320Z,5.97
2023-04-17T18:09:13.382Z,7.35
2023-04-17T18:11:45.737Z,8.02
2023-04-17T18:14:17.765Z,6.00
2023-04-17T18:16:52.350Z,6.15
2023-04-17T18:19:24.369Z,5.18
2023-04-17T18:21:56.441Z,12.65
2023-04-17T18:24:28.875Z,6.53
2023-04-17T18:27:02.551Z,6.55
2023-04-17T18:29:34.733Z,7.10
2023-04-17T18:32:09.634Z,5.93
2023-04-17T18:34:41.687Z,5.65
2023-04-17T18:37:14.657Z,7.97
2023-04-17T18:39:47.656Z,8.98
2023-04-17T18:42:19.977Z,7.65
2023-04-17T18:44:52.057Z,7.65
2023-04-17T18:47:26.731Z,6.57
2023-04-17T18:49:58.754Z,7.20
2023-04-17T18:52:30.802Z,6.32
2023-04-17T18:55:02.864Z,6.00
2023-04-17T18:57:34.984Z,8.07
2023-04-17T19:00:08.749Z,6.18
2023-04-17T19:02:43.721Z,7.60
2023-04-17T19:05:15.948Z,6.43
2023-04-17T19:07:48.062Z,8.25
2023-04-17T19:10:20.348Z,7.78
2023-04-17T19:12:52.419Z,6.47
2023-04-17T19:15:24.765Z,7.40
2023-04-17T19:17:59.429Z,8.20
2023-04-17T19:20:31.466Z,9.73
2023-04-17T19:23:03.789Z,8.48
2023-04-17T19:25:36.027Z,8.52
2023-04-17T19:28:08.104Z,7.63
2023-04-17T19:30:40.394Z,9.20
2023-04-17T19:33:15.023Z,8.23
2023-04-17T19:35:47.083Z,8.63
2023-04-17T19:38:19.262Z,8.65
2023-04-17T19:41:09.698Z,9.65
2023-04-17T19:43:42.575Z,9.15
2023-04-17T19:46:14.933Z,10.43
2023-04-17T19:48:51.035Z,8.43
2023-04-17T19:51:23.112Z,8.00
2023-04-17T19:53:55.285Z,8.30
2023-04-17T19:56:27.323Z,8.07
2023-04-17T19:59:02.917Z,10.18
2023-04-17T20:01:36.204Z,7.93
2023-04-17T20:04:11.273Z,8.50
2023-04-17T20:06:43.375Z,8.75
2023-04-17T20:09:16.846Z,8.73
2023-04-17T20:11:49.439Z,8.23
2023-04-17T20:14:21.468Z,8.40
2023-04-17T20:16:53.795Z,10.30
2023-04-17T20:19:28.480Z,14.77
2023-04-17T20:22:00.634Z,11.00
2023-04-17T20:24:32.731Z,10.63
2023-04-17T20:27:04.843Z,9.20
2023-04-17T20:29:36.885Z,9.57
2023-04-17T20:32:08.923Z,9.93
2023-04-17T20:34:43.547Z,10.90
2023-04-17T20:37:15.645Z,12.48
2023-04-17T20:39:47.696Z,10.43
2023-04-17T20:42:19.780Z,11.68
2023-04-17T20:44:51.836Z,10.13
2023-04-17T20:47:23.982Z,11.88
2023-04-17T20:49:58.668Z,12.15
2023-04-17T20:52:31.015Z,11.32
2023-04-17T20:55:03.364Z,11.32
2023-04-17T20:57:35.482Z,11.82
2023-04-17T21:00:09.211Z,9.55
2023-04-17T21:02:41.383Z,11.05
2023-04-17T21:05:16.192Z,11.57
2023-04-17T21:07:49.598Z,12.82
2023-04-17T21:10:23.444Z,13.02
2023-04-17T21:12:55.524Z,12.10
2023-04-17T21:15:27.570Z,12.27
2023-04-17T21:17:59.723Z,11.40
2023-04-17T21:20:34.508Z,11.38
2023-04-17T21:23:06.573Z,10.90
2023-04-17T21:25:38.747Z,10.95
2023-04-17T21:28:10.825Z,12.48
2023-04-17T21:30:42.838Z,11.82
2023-04-17T21:33:15.083Z,10.23
2023-04-17T21:35:49.798Z,12.73
2023-04-17T21:38:22.119Z,12.15
2023-04-17T21:40:54.205Z,10.30
2023-04-17T21:43:26.432Z,12.07
2023-04-17T21:45:58.944Z,11.43
2023-04-17T21:48:31.042Z,10.90
2023-04-17T21:51:05.960Z,11.65
2023-04-17T21:53:38.272Z,11.18
2023-04-17T21:56:10.315Z,12.02
2023-04-17T21:58:42.381Z,13.85
2023-04-17T22:01:14.533Z,12.27
2023-04-17T22:03:46.715Z,11.55
2023-04-17T22:06:21.417Z,12.57
2023-04-17T22:08:53.518Z,12.65
2023-04-17T22:11:25.737Z,11.07
2023-04-17T22:13:57.779Z,11.02
2023-04-17T22:16:29.896Z,13.60
2023-04-17T22:19:01.970Z,9.90
2023-04-17T22:21:36.627Z,11.93
2023-04-17T22:24:09.327Z,13.60
2023-04-17T22:26:41.343Z,11.52
2023-04-17T22:29:13.388Z,14.00
2023-04-17T22:31:45.468Z,11.65
2023-04-17T22:34:17.517Z,12.02
2023-04-17T22:36:52.127Z,13.73
2023-04-17T22:39:24.218Z,13.95
2023-04-17T22:41:56.732Z,14.30
2023-04-17T22:44:28.789Z,12.15
2023-04-17T22:47:00.815Z,15.00
2023-04-17T22:49:38.148Z,12.88
2023-04-17T22:52:12.966Z,13.30
2023-04-17T22:54:45.023Z,11.73
2023-04-17T22:57:17.111Z,13.15
2023-04-17T22:59:49.156Z,11.25
2023-04-17T23:02:21.326Z,13.20
2023-04-17T23:04:53.407Z,13.68
2023-04-17T23:07:28.148Z,12.52
2023-04-17T23:10:00.450Z,13.40
2023-04-17T23:12:32.697Z,13.00
2023-04-17T23:15:06.227Z,17.02
2023-04-17T23:17:38.390Z,13.73
2023-04-17T23:20:11.222Z,13.77
2023-04-17T23:22:46.091Z,13.43
2023-04-17T23:25:18.629Z,13.00
2023-04-17T23:27:50.677Z,14.20
2023-04-17T23:30:22.801Z,13.48
2023-04-17T23:32:55.609Z,11.73
2023-04-17T23:35:27.803Z,13.52
2023-04-17T23:38:02.499Z,13.00
2023-04-17T23:40:34.972Z,16.35
2023-04-17T23:43:07.565Z,11.07
2023-04-17T23:45:39.950Z,10.98
2023-04-17T23:48:11.993Z,11.30
2023-04-17T23:50:44.521Z,12.60
2023-04-17T23:53:19.197Z,11.25
2023-04-17T23:55:51.920Z,12.82
2023-04-17T23:58:23.968Z,12.00
